• Join FlightAware (Why Join?)
  • Login
  • US Flag 
07:27PM EDT


 

Airport Tracker/Info


-or-


 

Live Flight TrackerFlight Track Log ✈ EJM918 ✈ 04-Aug-2013 ✈ KHPN - LIMC / MXP

Flight Track Log - Related Links

Times and Time Zones

All times are in EDT time to prevent confusion due to time zone crossing. See the EJM918 flight status page for this flight to view local times or setup timezone preferences in your user account.

Time Position Orientation Groundspeed Altitude Reporting Facility
EDT Latitude Longitude Course Direction KTS MPH feet Rate Location/Type
07:17AM 41.2100 -73.7310 68° East 309 356 10,300  Level FlightAware
07:17AM 41.2260 -73.6740 70° East 356 410 11,000 1,620 Climbing FlightAware
07:18AM 41.2590 -73.5630 68° East 402 463 12,500 1,500 Climbing FlightAware
07:19AM 41.2880 -73.4650 68° East 412 474 13,400 1,740 Climbing FlightAware
07:19AM 41.3130 -73.3780 69° East 424 488 14,900 1,980 Climbing FlightAware
07:20AM 41.3540 -73.2410 68° East 430 495 16,600 3,000 Climbing FlightAware
07:21AM 41.3970 -73.1050 67° East 460 529 20,400 3,000 Climbing FlightAware
07:22AM 41.4280 -73.0350 59° Northeast 465 535 20,600 1,500 Climbing FlightAware
07:23AM 41.4830 -72.9110 59° Northeast 479 551 22,400 840 Climbing FlightAware
07:24AM 41.5570 -72.7450 59° Northeast 479 551 22,400 2,520 Level FlightAware
07:25AM 41.6310 -72.5550 62° Northeast 510 587 27,700 4,020 Climbing FlightAware
07:25AM 41.6690 -72.4590 62° Northeast 521 600 29,200 1,680 Climbing FlightAware
07:27AM 41.7500 -72.2450 63° Northeast 528 608 30,900 1,740 Climbing FlightAware
07:27AM 41.7990 -72.1160 63° Northeast 534 615 32,200 1,920 Climbing FlightAware
07:28AM 41.8340 -72.0240 63° Northeast 535 616 33,300 1,740 Climbing FlightAware
07:28AM 41.8750 -71.9140 63° Northeast 536 617 34,300 1,740 Climbing FlightAware
07:29AM 41.9150 -71.8080 63° Northeast 534 615 35,400 1,920 Climbing FlightAware
07:30AM 41.9720 -71.6530 64° Northeast 526 605 37,100 1,740 Climbing FlightAware
07:30AM 42.0030 -71.5720 63° Northeast 526 605 37,800 1,440 Climbing FlightAware
07:31AM 42.0430 -71.4630 64° Northeast 527 606 38,700 1,320 Climbing FlightAware
07:31AM 42.0810 -71.3590 64° Northeast 529 609 39,400 1,020 Climbing FlightAware
07:32AM 42.1200 -71.2520 64° Northeast 534 615 39,900 840 Climbing FlightAware
07:33AM 42.1590 -71.1470 63° Northeast 541 623 40,400 840 Climbing FlightAware
07:33AM 42.1960 -71.0460 64° Northeast 538 619 40,900 480 Climbing FlightAware
07:34AM 42.2330 -70.9440 64° Northeast 540 621 41,000 60 Climbing FlightAware
07:34AM 42.2760 -70.8250 64° Northeast 538 619 41,000  Level FlightAware
07:35AM 42.3150 -70.7170 64° Northeast 539 620 41,000  Level FlightAware
07:36AM 42.3540 -70.6080 64° Northeast 543 625 41,000  Level FlightAware
07:36AM 42.3900 -70.5060 64° Northeast 545 627 41,000  Level FlightAware
07:37AM 42.4280 -70.3990 64° Northeast 543 625 41,000  Level FlightAware
07:37AM 42.4680 -70.2860 64° Northeast 543 625 41,000  Level FlightAware
07:38AM 42.5000 -70.1970 64° Northeast 543 625 41,000  Level FlightAware
07:38AM 42.5390 -70.0880 64° Northeast 543 625 41,000  Level FlightAware
07:39AM 42.5810 -69.9670 65° Northeast 543 625 41,000  Level FlightAware
07:40AM 42.6420 -69.7940 64° Northeast 543 625 41,000  Level FlightAware
07:41AM 42.7010 -69.6210 65° Northeast 541 623 41,000  Level FlightAware
07:42AM 42.7370 -69.5170 65° Northeast 544 626 41,000  Level FlightAware
07:42AM 42.7750 -69.4050 65° Northeast 544 626 41,000  Level FlightAware
07:42AM 42.7900 -69.3620 65° Northeast 544 626 41,000  Level FlightAware
07:43AM 42.8590 -69.1600 65° Northeast 541 623 41,000  Level FlightAware
07:44AM 42.8950 -69.0540 65° Northeast 541 623 41,000  Level FlightAware
07:45AM 42.9380 -68.9280 65° Northeast 544 626 41,000  Level FlightAware
07:45AM 42.9700 -68.8350 65° Northeast 545 627 41,000  Level FlightAware
07:46AM 43.0100 -68.7160 65° Northeast 545 627 41,000  Level FlightAware
07:47AM 43.0490 -68.5960 66° East 542 624 41,000  Level FlightAware
07:47AM 43.0820 -68.5010 65° Northeast 542 624 41,000  Level FlightAware
07:49AM 43.2320 -68.0400 66° East 41,000  Level FlightAware
07:50AM 43.2620 -67.9500 65° Northeast 539 620 41,000  Level FlightAware
07:50AM 43.2980 -67.8390 66° East 539 620 41,000  Level FlightAware
07:51AM 43.3380 -67.7140 66° East 539 620 41,000  Level FlightAware
07:52AM 43.3690 -67.6170 66° East 539 620 41,000  Level FlightAware
07:52AM 43.4040 -67.5100 66° East 538 619 41,000  Level FlightAware
07:53AM 43.4440 -67.3830 67° East 537 618 41,000  Level FlightAware
07:53AM 43.4720 -67.2920 67° East 538 619 41,000  Level FlightAware
07:54AM 43.5090 -67.1750 66° East 538 619 41,000  Level FlightAware
07:55AM 43.5480 -67.0550 66° East 540 621 41,000  Level FlightAware
07:55AM 43.5960 -66.9310 62° Northeast 539 620 41,000  Level FlightAware
07:56AM 43.6390 -66.8280 60° Northeast 536 617 41,000  Level FlightAware
07:56AM 43.6840 -66.7240 59° Northeast 540 621 41,000  Level FlightAware
07:57AM 43.7340 -66.6050 60° Northeast 539 620 41,000  Level FlightAware
07:58AM 43.7800 -66.4990 59° Northeast 539 620 41,000  Level FlightAware
07:58AM 43.8200 -66.4030 60° Northeast 540 621 41,000  Level FlightAware
07:59AM 43.8710 -66.2830 59° Northeast 542 624 41,000  Level FlightAware
07:59AM 43.9110 -66.1890 59° Northeast 543 625 41,000  Level FlightAware
08:01AM 43.9980 -65.9800 60° Northeast 542 624 41,000  Level FlightAware
08:01AM 44.0420 -65.8750 60° Northeast 535 616 41,000  Level FlightAware
08:02AM 44.0840 -65.7740 60° Northeast 534 615 41,000  Level FlightAware
08:03AM 44.1390 -65.6410 60° Northeast 542 624 41,000  Level FlightAware
08:04AM 44.2160 -65.4530 60° Northeast 547 629 41,000  Level FlightAware
08:04AM 44.2580 -65.3520 60° Northeast 549 632 41,000  Level FlightAware
08:05AM 44.2990 -65.2510 60° Northeast 550 633 41,000  Level FlightAware
08:05AM 44.3430 -65.1440 60° Northeast 549 632 41,000  Level FlightAware
08:06AM 44.3800 -65.0500 61° Northeast 547 629 41,000  Level FlightAware
08:06AM 44.4340 -64.9160 61° Northeast 548 631 41,000  Level FlightAware
08:07AM 44.4760 -64.8110 61° Northeast 550 633 41,000  Level FlightAware
08:08AM 44.5210 -64.6980 61° Northeast 548 631 41,000  Level FlightAware
08:08AM 44.5660 -64.5870 60° Northeast 547 629 41,000  Level FlightAware
08:09AM 44.6070 -64.4830 61° Northeast 548 631 41,000  Level FlightAware
08:09AM 44.6490 -64.3770 61° Northeast 550 633 41,000  Level FlightAware
08:10AM 44.6930 -64.2650 61° Northeast 554 638 41,000  Level FlightAware
08:10AM 44.7330 -64.1630 61° Northeast 555 639 41,000  Level FlightAware
08:11AM 44.7780 -64.0480 61° Northeast 554 638 41,000  Level FlightAware
08:12AM 44.8210 -63.9370 61° Northeast 551 634 41,000  Level FlightAware
08:12AM 44.8620 -63.8310 61° Northeast 551 634 41,000  Level FlightAware
08:13AM 44.9170 -63.6900 61° Northeast 553 636 41,000  Level FlightAware
08:14AM 44.9650 -63.5640 62° Northeast 553 636 41,000  Level FlightAware
08:14AM 45.0020 -63.4670 62° Northeast 553 636 41,000  Level FlightAware
08:15AM 45.0470 -63.3470 62° Northeast 552 635 41,000  Level FlightAware
08:16AM 45.1070 -63.1910 61° Northeast 555 639 41,000  Level FlightAware
08:16AM 45.1470 -63.0840 62° Northeast 555 639 41,000  Level FlightAware
08:17AM 45.1840 -62.9860 62° Northeast 555 639 41,000  Level FlightAware
08:18AM 45.2200 -62.8870 63° Northeast 555 639 41,000  Level FlightAware
08:18AM 45.2570 -62.7890 62° Northeast 555 639 41,000  Level FlightAware
08:19AM 45.2950 -62.6870 62° Northeast 555 639 41,000  Level FlightAware
08:19AM 45.3320 -62.5890 62° Northeast 555 639 41,000 540 Level FlightAware
08:26AM 45.7960 -61.3030 62° Northeast 527 606 45,000 540 Climbing FlightAware
08:26AM 45.8380 -61.1850 63° Northeast 529 609 45,000  Level FlightAware
08:27AM 45.8740 -61.0820 63° Northeast 527 606 45,000  Level FlightAware
08:27AM 45.9130 -60.9710 63° Northeast 526 605 45,000  Level FlightAware
08:28AM 45.9520 -60.8580 64° Northeast 526 605 45,000  Level FlightAware
08:29AM 45.9910 -60.7450 64° Northeast 528 608 45,000  Level FlightAware
08:29AM 46.0260 -60.6450 63° Northeast 531 611 45,000  Level FlightAware
08:30AM 46.0670 -60.5250 64° Northeast 532 612 45,000  Level FlightAware
08:30AM 46.1020 -60.4220 64° Northeast 530 610 45,000  Level FlightAware
08:31AM 46.1410 -60.3080 64° Northeast 528 608 45,000  Level FlightAware
08:32AM 46.1780 -60.1960 64° Northeast 528 608 45,000  Level FlightAware
08:32AM 46.2120 -60.0950 64° Northeast 528 608 45,000  Level FlightAware
08:33AM 46.2510 -59.9800 64° Northeast 528 608 45,000  Level FlightAware
08:33AM 46.2890 -59.8660 64° Northeast 528 608 45,000  Level FlightAware
08:34AM 46.3270 -59.7520 64° Northeast 530 610 45,000  Level FlightAware
08:34AM 46.3610 -59.6490 64° Northeast 530 610 45,000  Level FlightAware
08:35AM 46.4000 -59.5340 64° Northeast 530 610 45,000  Level FlightAware
08:36AM 46.4360 -59.4230 65° Northeast 531 611 45,000  Level FlightAware
08:36AM 46.4750 -59.3040 65° Northeast 531 611 45,000  Level FlightAware
08:37AM 46.5090 -59.2010 64° Northeast 530 610 45,000  Level FlightAware
08:37AM 46.5450 -59.0890 65° Northeast 527 606 45,000  Level FlightAware
08:38AM 46.5830 -58.9710 65° Northeast 526 605 45,000  Level FlightAware
08:39AM 46.6180 -58.8630 65° Northeast 526 605 45,000  Level FlightAware
08:39AM 46.6550 -58.7470 65° Northeast 528 608 45,000  Level FlightAware
08:40AM 46.6920 -58.6300 65° Northeast 528 608 45,000  Level FlightAware
08:40AM 46.7260 -58.5240 65° Northeast 527 606 45,000  Level FlightAware
08:41AM 46.7640 -58.4050 65° Northeast 528 608 45,000  Level FlightAware
08:41AM 46.7960 -58.3020 66° East 528 608 45,000  Level FlightAware
08:42AM 46.8330 -58.1860 65° Northeast 527 606 45,000  Level FlightAware
08:43AM 46.8630 -58.0880 66° East 527 606 45,000  Level FlightAware
08:43AM 46.9030 -57.9600 65° Northeast 527 606 45,000  Level FlightAware
08:44AM 46.9350 -57.8560 66° East 527 606 45,000  Level FlightAware
08:44AM 46.9760 -57.7250 65° Northeast 528 608 45,000  Level FlightAware
08:45AM 47.0050 -57.6270 67° East 528 608 45,000  Level FlightAware
08:45AM 47.0380 -57.5200 66° East 527 606 45,000  Level FlightAware
08:46AM 47.0720 -57.4090 66° East 525 604 45,000  Level FlightAware
08:47AM 47.1110 -57.2800 66° East 523 602 45,000  Level FlightAware
08:47AM 47.1430 -57.1740 66° East 522 601 45,000  Level FlightAware
08:48AM 47.1740 -57.0700 66° East 523 602 45,000  Level FlightAware
08:48AM 47.2130 -56.9390 66° East 524 603 45,000  Level FlightAware
08:49AM 47.2510 -56.8120 66° East 525 604 45,000  Level FlightAware
08:50AM 47.2980 -56.6510 67° East 525 604 45,000  Level FlightAware
08:50AM 47.3330 -56.5330 66° East 526 605 45,000  Level FlightAware
08:51AM 47.3670 -56.4150 67° East 528 608 45,000  Level FlightAware
08:52AM 47.4020 -56.2950 67° East 530 610 45,000  Level FlightAware
08:52AM 47.4350 -56.1790 67° East 530 610 45,000  Level FlightAware
08:53AM 47.4770 -56.0340 67° East 530 610 45,000  Level FlightAware
08:54AM 47.5070 -55.9310 67° East 531 611 45,000  Level FlightAware
08:54AM 47.5390 -55.8200 67° East 531 611 45,000  Level FlightAware
08:55AM 47.5760 -55.6900 67° East 530 610 45,000  Level FlightAware
08:55AM 47.6090 -55.5720 67° East 530 610 45,000  Level FlightAware
08:56AM 47.6450 -55.4440 67° East 529 609 45,000  Level FlightAware
08:56AM 47.6740 -55.3360 68° East 526 605 45,000  Level FlightAware
08:57AM 47.7080 -55.2160 67° East 521 600 45,000  Level FlightAware
08:58AM 47.7380 -55.1080 68° East 520 598 45,000  Level FlightAware
08:58AM 47.7720 -54.9860 67° East 522 601 45,000  Level FlightAware
08:59AM 47.8000 -54.8820 68° East 523 602 45,000  Level FlightAware
08:59AM 47.8330 -54.7590 68° East 524 603 45,000  Level FlightAware
08:59AM 47.8370 -54.7450 67° East 524 603 45,000  Level FlightAware
09:01AM 47.9140 -54.4610 68° East 526 605 45,000  Level FlightAware
09:02AM 47.9400 -54.3610 69° East 526 605 45,000  Level FlightAware
09:02AM 47.9870 -54.1860 68° East 525 604 45,000  Level FlightAware
09:03AM 48.0200 -54.0620 68° East 523 602 45,000  Level FlightAware
09:03AM 48.0530 -53.9380 68° East 522 601 45,000  Level FlightAware
09:04AM 48.0670 -53.8830 69° East 524 603 45,000  Level FlightAware
09:05AM 48.1170 -53.6910 69° East 532 612 45,000  Level FlightAware
09:05AM 48.1530 -53.5540 68° East 533 613 45,000  Level FlightAware
09:06AM 48.1790 -53.4520 69° East 530 610 45,000  Level FlightAware
09:07AM 48.2140 -53.3140 69° East 525 604 45,000  Level FlightAware
09:07AM 48.2480 -53.1800 69° East 524 603 45,000  Level FlightAware
09:08AM 48.2790 -53.0600 69° East 526 605 45,000  Level FlightAware
09:08AM 48.3090 -52.9410 69° East 529 609 45,000  Level FlightAware
09:09AM 48.3390 -52.8200 70° East 529 609 45,000  Level FlightAware
09:10AM 48.3690 -52.7000 69° East 527 606 45,000  Level FlightAware
09:10AM 48.4030 -52.5630 69° East 520 598 45,000  Level FlightAware
09:11AM 48.4340 -52.4360 70° East 517 595 45,000  Level FlightAware
09:12AM 48.4810 -52.2450 70° East 525 604 45,000  Level FlightAware
09:12AM 48.5110 -52.1220 70° East 525 604 45,000  Level FlightAware
09:13AM 48.5400 -52.0020 70° East 524 603 45,000  Level FlightAware
09:14AM 48.5680 -51.8830 70° East 522 601 45,000  Level FlightAware
09:14AM 48.5970 -51.7630 70° East 520 598 45,000  Level FlightAware
09:15AM 48.6250 -51.6460 70° East 516 594 45,000  Level FlightAware
09:15AM 48.6520 -51.5290 71° East 517 595 45,000  Level FlightAware
09:16AM 48.6810 -51.4060 70° East 520 598 45,000  Level FlightAware
09:16AM 48.7080 -51.2890 71° East 524 603 45,000  Level FlightAware
09:17AM 48.7360 -51.1730 70° East 523 602 45,000  Level FlightAware
09:18AM 48.7650 -51.0440 71° East 521 600 45,000  Level FlightAware
09:18AM 48.8010 -50.8900 70° East 521 600 45,000  Level FlightAware
09:19AM 48.8230 -50.7920 71° East 521 600 45,000  Level FlightAware
09:19AM 48.8510 -50.6680 71° East 523 602 45,000  Level FlightAware
09:20AM 48.8990 -50.4540 71° East 520 598 45,000  Level FlightAware
09:21AM 48.9280 -50.3250 71° East 522 601 45,000  Level FlightAware
09:22AM 48.9620 -50.1720 71° East 524 603 45,000  Level FlightAware
09:22AM 48.9780 -50.1020 71° East 524 603 45,000  Level FlightAware
09:24AM 49.0280 -49.8050 75° East 525 604 45,000  Level FlightAware
09:24AM 49.0450 -49.6880 77° East 527 606 45,000  Level FlightAware
09:25AM 49.0620 -49.5770 77° East 527 606 45,000  Level FlightAware
09:25AM 49.0790 -49.4630 77° East 527 606 45,000  Level FlightAware
09:26AM 49.0960 -49.3520 77° East 527 606 45,000  Level FlightAware
09:27AM 49.1130 -49.2410 77° East 527 606 45,000  Level FlightAware
09:27AM 49.1300 -49.1300 77° East 527 606 45,000  Level FlightAware
09:28AM 49.1460 -49.0190 78° East 527 606 45,000  Level FlightAware
09:28AM 49.1630 -48.9080 77° East 527 606 45,000  Level FlightAware
09:29AM 49.1850 -48.7600 77° East 527 606 45,000  Level FlightAware
09:30AM 49.2020 -48.6480 77° East 527 606 45,000  Level FlightAware
09:30AM 49.2190 -48.5370 77° East 527 606 45,000  Level FlightAware
09:31AM 49.2360 -48.4260 77° East 527 606 45,000  Level FlightAware
09:32AM 49.2520 -48.3140 78° East 527 606 45,000  Level FlightAware
09:32AM 49.2700 -48.2000 76° East 527 606 45,000  Level FlightAware
09:33AM 49.0000 -50.0000 77° East 525 604 45,000  Level ETMS Enhanced Traffic Management System
09:33AM 49.2860 -48.0890 77° East 527 606 45,000  Level FlightAware
09:33AM 49.3030 -47.9770 77° East 527 606 45,000  Level FlightAware
09:36AM 49.3163 -47.5475 87° East  Level FlightAware Approximate
09:37AM 49.3413 -47.3341 79° East  Level FlightAware Approximate
09:38AM 49.3669 -47.1244 79° East  Level FlightAware Approximate
09:39AM 49.4788 -46.2719 80° East 525 604 45,000  Level FlightAware Transoceanic
09:40AM 49.5033 -46.0504 80° East 525 604 45,000  Level FlightAware Transoceanic
09:41AM 49.5272 -45.8288 81° East 525 604 45,000  Level FlightAware Transoceanic
09:42AM 49.5508 -45.6069 81° East 525 604 45,000  Level FlightAware Transoceanic
09:43AM 49.5739 -45.3848 81° East 525 604 45,000  Level FlightAware Transoceanic
09:44AM 49.5966 -45.1624 81° East 525 604 45,000  Level FlightAware Transoceanic
09:45AM 49.6189 -44.9399 81° East 525 604 45,000  Level FlightAware Transoceanic
09:46AM 49.6408 -44.7172 81° East 525 604 45,000  Level FlightAware Transoceanic
09:47AM 49.6622 -44.4943 82° East 525 604 45,000  Level FlightAware Transoceanic
09:48AM 49.6832 -44.2712 82° East 525 604 45,000  Level FlightAware Transoceanic
09:49AM 49.7038 -44.0479 82° East 525 604 45,000  Level FlightAware Transoceanic
09:50AM 49.7239 -43.8244 82° East 525 604 45,000  Level FlightAware Transoceanic
09:51AM 49.7436 -43.6007 82° East 525 604 45,000  Level FlightAware Transoceanic
09:52AM 49.7629 -43.3768 82° East 525 604 45,000  Level FlightAware Transoceanic
09:53AM 49.7818 -43.1528 83° East 525 604 45,000  Level FlightAware Transoceanic
09:54AM 49.8002 -42.9286 83° East 525 604 45,000  Level FlightAware Transoceanic
09:55AM 49.8182 -42.7042 83° East 525 604 45,000  Level FlightAware Transoceanic
09:56AM 49.8357 -42.4797 83° East 525 604 45,000  Level FlightAware Transoceanic
09:57AM 49.8528 -42.2550 83° East 525 604 45,000  Level FlightAware Transoceanic
09:58AM 49.8695 -42.0301 84° East 525 604 45,000  Level FlightAware Transoceanic
09:59AM 49.8858 -41.8051 84° East 525 604 45,000  Level FlightAware Transoceanic
10:00AM 49.9016 -41.5800 84° East 525 604 45,000  Level FlightAware Transoceanic
10:01AM 49.9169 -41.3547 84° East 525 604 45,000  Level FlightAware Transoceanic
10:02AM 49.9319 -41.1292 84° East 525 604 45,000  Level FlightAware Transoceanic
10:03AM 49.9464 -40.9036 84° East 525 604 45,000  Level FlightAware Transoceanic
10:04AM 49.9604 -40.6779 85° East 525 604 45,000  Level FlightAware Transoceanic
10:05AM 49.9741 -40.4521 85° East 525 604 45,000  Level FlightAware Transoceanic
10:06AM 49.9873 -40.2261 85° East 525 604 45,000  Level FlightAware Transoceanic
10:07AM 49.9994 -40.0107 85° East  Level FlightAware Approximate
10:08AM 50.0111 -39.7952 85° East  Level FlightAware Approximate
10:09AM 50.0082 -39.8056 86° East  Level FlightAware Approximate
10:10AM 50.0169 -39.5897 86° East  Level FlightAware Approximate
10:11AM 50.0253 -39.3737 86° East  Level FlightAware Approximate
10:12AM 50.0332 -39.1576 87° East  Level FlightAware Approximate
10:13AM 50.0407 -38.9415 87° East  Level FlightAware Approximate
10:14AM 50.0479 -38.7253 87° East  Level FlightAware Approximate
10:15AM 50.0546 -38.5091 87° East  Level FlightAware Approximate
10:16AM 50.0609 -38.2928 87° East  Level FlightAware Approximate
10:17AM 50.0669 -38.0764 87° East  Level FlightAware Approximate
10:18AM 50.0724 -37.8600 88° East  Level FlightAware Approximate
10:19AM 50.0775 -37.6435 88° East  Level FlightAware Approximate
10:20AM 50.0822 -37.4270 88° East  Level FlightAware Approximate
10:21AM 50.0865 -37.2104 88° East  Level FlightAware Approximate
10:22AM 50.0905 -36.9939 88° East  Level FlightAware Approximate
10:23AM 50.0940 -36.7772 88° East  Level FlightAware Approximate
10:24AM 50.0971 -36.5606 89° East  Level FlightAware Approximate
10:25AM 50.0998 -36.3439 89° East  Level FlightAware Approximate
10:26AM 50.1021 -36.1272 89° East  Level FlightAware Approximate
10:27AM 50.1040 -35.9105 89° East  Level FlightAware Approximate
10:28AM 50.1055 -35.6938 89° East  Level FlightAware Approximate
10:29AM 50.1065 -35.4770 89° East  Level FlightAware Approximate
10:30AM 50.1072 -35.2603 90° East  Level FlightAware Approximate
10:31AM 50.1075 -35.0435 90° East  Level FlightAware Approximate
10:32AM 50.1074 -34.8267 90° East  Level FlightAware Approximate
10:33AM 50.1069 -34.6100 90° East  Level FlightAware Approximate
10:34AM 50.1059 -34.3932 90° East  Level FlightAware Approximate
10:35AM 50.1046 -34.1765 90° East  Level FlightAware Approximate
10:36AM 50.1029 -33.9598 91° East  Level FlightAware Approximate
10:37AM 50.1007 -33.7430 91° East  Level FlightAware Approximate
10:38AM 50.0982 -33.5264 91° East  Level FlightAware Approximate
10:39AM 50.0953 -33.3097 91° East  Level FlightAware Approximate
10:40AM 50.0919 -33.0931 91° East  Level FlightAware Approximate
10:41AM 50.0882 -32.8765 91° East  Level FlightAware Approximate
10:42AM 50.0840 -32.6599 92° East  Level FlightAware Approximate
10:43AM 50.0794 -32.4434 92° East  Level FlightAware Approximate
10:44AM 50.0745 -32.2269 92° East  Level FlightAware Approximate
10:45AM 50.0691 -32.0104 92° East  Level FlightAware Approximate
10:46AM 50.0634 -31.7941 92° East  Level FlightAware Approximate
10:47AM 50.0572 -31.5777 92° East  Level FlightAware Approximate
10:48AM 50.0506 -31.3615 93° East  Level FlightAware Approximate
10:49AM 50.0437 -31.1452 93° East  Level FlightAware Approximate
10:50AM 50.0363 -30.9291 93° East  Level FlightAware Approximate
10:51AM 50.0285 -30.7130 93° East  Level FlightAware Approximate
10:52AM 50.0203 -30.4970 93° East  Level FlightAware Approximate
10:53AM 50.0118 -30.2811 93° East  Level FlightAware Approximate
10:54AM 50.0028 -30.0652 94° East  Level FlightAware Approximate
10:55AM 50.0064 -29.8494 86° East  Level FlightAware Approximate
10:56AM 50.0152 -29.6335 86° East  Level FlightAware Approximate
10:57AM 50.0236 -29.4176 86° East  Level FlightAware Approximate
10:58AM 50.0316 -29.2015 87° East  Level FlightAware Approximate
10:59AM 50.0392 -28.9854 87° East  Level FlightAware Approximate
11:00AM 50.0465 -28.7692 87° East  Level FlightAware Approximate
11:01AM 50.0533 -28.5530 87° East  Level FlightAware Approximate
11:02AM 50.0597 -28.3367 87° East  Level FlightAware Approximate
11:03AM 50.0657 -28.1203 87° East  Level FlightAware Approximate
11:04AM 50.0713 -27.9039 88° East  Level FlightAware Approximate
11:05AM 50.0765 -27.6875 88° East  Level FlightAware Approximate
11:06AM 50.0813 -27.4710 88° East  Level FlightAware Approximate
11:07AM 50.0857 -27.2544 88° East  Level FlightAware Approximate
11:08AM 50.0897 -27.0378 88° East  Level FlightAware Approximate
11:09AM 50.0933 -26.8212 88° East  Level FlightAware Approximate
11:10AM 50.0965 -26.6046 89° East  Level FlightAware Approximate
11:11AM 50.0993 -26.3879 89° East  Level FlightAware Approximate
11:12AM 50.1016 -26.1712 89° East  Level FlightAware Approximate
11:13AM 50.1036 -25.9545 89° East  Level FlightAware Approximate
11:14AM 50.1052 -25.7378 89° East  Level FlightAware Approximate
11:15AM 50.1064 -25.5210 89° East  Level FlightAware Approximate
11:16AM 50.1071 -25.3043 90° East  Level FlightAware Approximate
11:17AM 50.1075 -25.0875 90° East  Level FlightAware Approximate
11:18AM 50.1074 -24.8708 90° East  Level FlightAware Approximate
11:19AM 50.1070 -24.6540 90° East  Level FlightAware Approximate
11:20AM 50.1062 -24.4373 90° East  Level FlightAware Approximate
11:21AM 50.1049 -24.2205 90° East  Level FlightAware Approximate
11:22AM 50.1033 -24.0038 91° East  Level FlightAware Approximate
11:23AM 50.1012 -23.7871 91° East  Level FlightAware Approximate
11:24AM 50.0987 -23.5704 91° East  Level FlightAware Approximate
11:25AM 50.0959 -23.3537 91° East  Level FlightAware Approximate
11:26AM 50.0926 -23.1371 91° East  Level FlightAware Approximate
11:27AM 50.0889 -22.9205 91° East  Level FlightAware Approximate
11:28AM 50.0849 -22.7039 92° East  Level FlightAware Approximate
11:29AM 50.0804 -22.4874 92° East  Level FlightAware Approximate
11:30AM 50.0755 -22.2709 92° East  Level FlightAware Approximate
11:31AM 50.0702 -22.0544 92° East  Level FlightAware Approximate
11:32AM 50.0646 -21.8380 92° East  Level FlightAware Approximate
11:33AM 50.0585 -21.6217 92° East  Level FlightAware Approximate
11:34AM 50.0520 -21.4054 93° East  Level FlightAware Approximate
11:35AM 50.0451 -21.1892 93° East  Level FlightAware Approximate
11:36AM 50.0378 -20.9730 93° East  Level FlightAware Approximate
11:37AM 50.0301 -20.7569 93° East  Level FlightAware Approximate
11:38AM 50.0220 -20.5409 93° East  Level FlightAware Approximate
11:39AM 50.0135 -20.3249 93° East  Level FlightAware Approximate
11:40AM 50.0047 -20.1091 94° East  Level FlightAware Approximate
11:41AM 50.0009 -19.8930 89° East  Level FlightAware Approximate
11:42AM 50.0023 -19.6768 89° East  Level FlightAware Approximate
11:43AM 50.0033 -19.4605 89° East  Level FlightAware Approximate
11:44AM 50.0039 -19.2442 90° East  Level FlightAware Approximate
11:45AM 50.0042 -19.0279 90° East  Level FlightAware Approximate
11:46AM 50.0040 -18.8116 90° East  Level FlightAware Approximate
11:47AM 50.0034 -18.5953 90° East  Level FlightAware Approximate
11:48AM 50.0024 -18.3790 90° East  Level FlightAware Approximate
11:49AM 50.0010 -18.1628 90° East  Level FlightAware Approximate
11:50AM 49.9993 -17.9465 91° East  Level FlightAware Approximate
11:51AM 49.9971 -17.7303 91° East  Level FlightAware Approximate
11:52AM 49.9945 -17.5141 91° East  Level FlightAware Approximate
11:53AM 49.9915 -17.2979 91° East  Level FlightAware Approximate
11:54AM 49.9881 -17.0817 91° East  Level FlightAware Approximate
11:55AM 49.9843 -16.8656 91° East  Level FlightAware Approximate
11:56AM 49.9801 -16.6495 92° East  Level FlightAware Approximate
11:57AM 49.9755 -16.4334 92° East  Level FlightAware Approximate
11:58AM 49.9705 -16.2174 92° East  Level FlightAware Approximate
11:59AM 49.9651 -16.0014 92° East  Level FlightAware Approximate
12:00PM 49.9593 -15.7855 92° East  Level FlightAware Approximate
12:01PM 49.9531 -15.5697 92° East  Level FlightAware Approximate
12:02PM 49.9461 -15.3539 93° East  Level FlightAware Approximate
12:03PM 49.9385 -15.1382 93° East  Level FlightAware Approximate
12:04PM 49.9309 -14.9225 93° East  Level FlightAware Approximate
12:05PM 49.9238 -14.7069 93° East  Level FlightAware Approximate
12:06PM 49.9163 -14.4913 93° East  Level FlightAware Approximate
12:07PM 49.9084 -14.2757 93° East  Level FlightAware Approximate
12:08PM 49.9000 -14.0603 93° East  Level FlightAware Approximate
12:09PM 49.8913 -13.8449 94° East  Level FlightAware Approximate
12:10PM 49.8822 -13.6296 94° East  Level FlightAware Approximate
12:11PM 49.8727 -13.4144 94° East  Level FlightAware Approximate
12:12PM 49.8628 -13.1993 94° East  Level FlightAware Approximate
12:13PM 49.8525 -12.9842 94° East  Level FlightAware Approximate
12:14PM 49.8418 -12.7693 94° East  Level FlightAware Approximate
12:15PM 49.8307 -12.5544 94° East  Level FlightAware Approximate
12:16PM 49.8192 -12.3397 95° East  Level FlightAware Approximate
12:17PM 49.8073 -12.1250 95° East  Level FlightAware Approximate
12:18PM 49.7950 -11.9105 95° East  Level FlightAware Approximate
12:19PM 49.7823 -11.6960 95° East  Level FlightAware Approximate
12:20PM 49.7693 -11.4817 95° East  Level FlightAware Approximate
12:21PM 49.7558 -11.2675 95° East  Level FlightAware Approximate
12:22PM 49.7419 -11.0534 96° East  Level FlightAware Approximate
12:23PM 49.7276 -10.8395 96° East  Level FlightAware Approximate
12:24PM 49.7130 -10.6257 96° East  Level FlightAware Approximate
12:25PM 49.6979 -10.4120 96° East  Level FlightAware Approximate
12:25PM 49.3770 -10.0700 96° East 503 579 45,000  Level FlightAware
12:25PM 49.3580 -9.9440 103° East 504 580 45,000  Level FlightAware
12:26PM 49.6825 -10.1984 96° East  Level FlightAware Approximate
12:26PM 49.3260 -9.7350 103° East 507 583 45,000  Level FlightAware
12:27PM 49.3020 -9.5780 103° East 509 586 45,000  Level FlightAware
12:28PM 49.2740 -9.3980 103° East 508 585 45,000  Level FlightAware
12:28PM 49.2540 -9.2710 104° East 508 585 45,000  Level FlightAware
12:29PM 49.2330 -9.1350 103° East 508 585 45,000  Level FlightAware
12:30PM 49.2150 -9.0200 103° East 507 583 45,000  Level FlightAware
12:30PM 49.1950 -8.8990 104° East 506 582 45,000  Level FlightAware
12:31PM 49.1768 -8.7786 104° East 484 557 45,000  Level FlightAware UK
12:31PM 49.1760 -8.7800 104° East 504 580 45,000  Level FlightAware
12:31PM 49.1600 -8.6800 104° East 504 580 45,000  Level FlightAware
12:32PM 49.1420 -8.5707 104° East 482 555 45,000  Level FlightAware UK
12:32PM 49.1360 -8.5340 104° East 504 580 45,000  Level FlightAware
12:33PM 49.1160 -8.4160 104° East 505 581 45,000  Level FlightAware
12:33PM 49.0970 -8.2990 104° East 503 579 45,000  Level FlightAware
12:34PM 49.0760 -8.1750 104° East 500 575 45,000  Level FlightAware
12:34PM 49.0600 -8.0800 104° East 499 574 45,000  Level FlightAware
12:34PM 49.0554 -8.0554 104° East 482 555 45,000  Level FlightAware UK
12:35PM 49.0377 -7.9531 104° East 482 555 45,000  Level FlightAware UK
12:35PM 49.0290 -7.9150 104° East 497 572 45,000  Level FlightAware
12:36PM 48.9930 -7.7880 113° Southeast 494 568 45,000  Level FlightAware
12:36PM 48.9620 -7.6880 113° Southeast 492 566 45,000  Level FlightAware
12:36PM 48.9570 -7.6692 113° Southeast 484 557 45,000  Level FlightAware UK
12:37PM 48.9273 -7.5751 113° Southeast 482 555 45,000  Level FlightAware UK
12:37PM 48.9290 -7.5810 113° Southeast 489 563 45,000  Level FlightAware
12:37PM 48.8983 -7.4816 113° Southeast 480 552 45,000  Level FlightAware UK
12:37PM 48.8910 -7.4570 113° Southeast 488 562 45,000  Level FlightAware
12:38PM 48.8620 -7.3650 116° Southeast 489 563 45,000  Level FlightAware
12:39PM 48.8220 -7.2400 116° Southeast 491 565 45,000  Level FlightAware
12:39PM 48.7900 -7.1370 115° Southeast 493 567 45,000  Level FlightAware
12:39PM 48.7730 -7.0850 116° Southeast 493 567 45,000  Level FlightAware
12:40PM 48.7400 -6.9800 116° Southeast 492 566 45,000  Level FlightAware
12:40PM 48.7221 -6.9246 116° Southeast 482 555 45,000  Level FlightAware UK
12:41PM 48.6921 -6.8309 116° Southeast 482 555 45,000  Level FlightAware UK
12:41PM 48.6880 -6.8170 116° Southeast 491 565 45,000  Level FlightAware
12:41PM 48.6570 -6.7200 116° Southeast 491 565 45,000  Level FlightAware
12:42PM 48.6280 -6.6310 116° Southeast 492 566 45,000  Level FlightAware
12:42PM 48.6034 -6.5540 116° Southeast 482 555 45,000  Level FlightAware UK
12:43PM 48.5727 -6.4594 116° Southeast 482 555 45,000  Level FlightAware UK
12:43PM 48.5560 -6.4060 116° Southeast 493 567 45,000  Level FlightAware
12:44PM 48.5230 -6.3070 117° Southeast 494 568 45,000  Level FlightAware
12:44PM 48.4870 -6.1970 116° Southeast 495 570 45,000  Level FlightAware
12:45PM 48.4510 -6.0860 116° Southeast 494 568 45,000  Level FlightAware
12:45PM 48.4150 -5.9790 116° Southeast 480 552 45,000  Level FlightAware UK
12:45PM 48.4160 -5.9810 116° Southeast 493 567 45,000  Level FlightAware
12:46PM 48.3846 -5.8871 116° Southeast 478 550 45,000  Level FlightAware UK
12:46PM 48.3730 -5.8530 116° Southeast 493 567 45,000  Level FlightAware
12:47PM 48.3370 -5.7430 116° Southeast 495 570 45,000  Level FlightAware
12:47PM 48.3030 -5.6420 117° Southeast 496 571 45,000  Level FlightAware
12:48PM 48.2660 -5.5310 117° Southeast 496 571 45,000  Level FlightAware
12:48PM 48.2618 -5.5187 117° Southeast 482 555 45,000  Level FlightAware UK
12:48PM 48.2309 -5.4267 117° Southeast 480 552 45,000  Level FlightAware UK
12:48PM 48.2300 -5.4240 117° Southeast 496 571 45,000  Level FlightAware
12:49PM 48.1940 -5.3160 117° Southeast 496 571 45,000  Level FlightAware
12:50PM 48.1560 -5.2060 117° Southeast 496 571 45,000  Level FlightAware
12:50PM 48.1180 -5.0970 118° Southeast 496 571 45,000  Level FlightAware
12:51PM 48.0830 -4.9930 117° Southeast 495 570 45,000  Level FlightAware
12:51PM 48.0450 -4.8830 117° Southeast 495 570 45,000  Level FlightAware
12:52PM 48.0120 -4.7870 117° Southeast 496 571 45,000  Level FlightAware
12:52PM 47.9790 -4.6930 118° Southeast 497 572 45,000  Level FlightAware
12:53PM 47.9380 -4.5730 117° Southeast 499 574 45,000  Level FlightAware
12:54PM 47.9010 -4.4700 118° Southeast 500 575 45,000  Level FlightAware
12:54PM 47.8630 -4.3600 117° Southeast 498 573 45,000  Level FlightAware
12:55PM 47.8250 -4.2520 118° Southeast 496 571 45,000  Level FlightAware
12:55PM 47.7900 -4.1550 118° Southeast 498 573 45,000  Level FlightAware
12:56PM 47.7470 -4.0350 118° Southeast 499 574 45,000  Level FlightAware
12:57PM 47.7100 -3.9310 118° Southeast 500 575 45,000  Level FlightAware
12:57PM 47.6710 -3.8230 118° Southeast 501 577 45,000  Level FlightAware
12:58PM 47.6370 -3.7270 118° Southeast 499 574 45,000  Level FlightAware
12:58PM 47.5970 -3.6180 119° Southeast 497 572 45,000  Level FlightAware
12:59PM 47.5610 -3.5180 118° Southeast 498 573 45,000  Level FlightAware
12:59PM 47.5260 -3.4200 118° Southeast 498 573 45,000  Level FlightAware
01:00PM 47.4860 -3.3130 119° Southeast 498 573 45,000  Level FlightAware
01:01PM 47.4290 -3.1570 118° Southeast 495 570 45,000  Level FlightAware
01:02PM 47.3880 -3.0460 119° Southeast 494 568 45,000  Level FlightAware
01:02PM 47.3500 -2.9420 118° Southeast 495 570 45,000  Level FlightAware
01:02PM 47.3310 -2.8920 119° Southeast 495 570 45,000  Level FlightAware
01:03PM 47.2630 -2.7090 119° Southeast 492 566 45,000  Level FlightAware
01:04PM 47.2260 -2.6100 119° Southeast 493 567 45,000  Level FlightAware
01:05PM 47.1860 -2.5050 119° Southeast 497 572 45,000  Level FlightAware
01:05PM 47.1460 -2.4010 119° Southeast 499 574 45,000  Level FlightAware
01:06PM 47.1190 -2.3280 119° Southeast 496 571 45,000  Level FlightAware
01:06PM 47.0740 -2.2100 119° Southeast 494 568 45,000  Level FlightAware
01:07PM 47.0340 -2.1070 120° Southeast 493 567 45,000  Level FlightAware
01:07PM 46.9970 -2.0100 119° Southeast 495 570 45,000  Level FlightAware
01:08PM 46.9570 -1.9080 120° Southeast 496 571 45,000  Level FlightAware
01:09PM 46.9180 -1.8060 119° Southeast 492 566 45,000  Level FlightAware
01:09PM 46.8810 -1.7120 120° Southeast 491 565 45,000  Level FlightAware
01:10PM 46.8400 -1.6050 119° Southeast 493 567 45,000  Level FlightAware
01:10PM 46.7970 -1.4950 120° Southeast 496 571 45,000  Level FlightAware
01:11PM 46.7580 -1.3960 120° Southeast 497 572 45,000  Level FlightAware
01:11PM 46.7290 -1.3210 119° Southeast 495 570 45,000  Level FlightAware
01:12PM 46.6850 -1.2090 120° Southeast 489 563 45,000  Level FlightAware
01:13PM 46.6430 -1.1030 120° Southeast 487 560 45,000  Level FlightAware
01:13PM 46.6000 -0.9960 120° Southeast 488 562 45,000  Level FlightAware
01:14PM 46.5630 -0.9040 120° Southeast 492 566 45,000  Level FlightAware
01:14PM 46.5230 -0.8040 120° Southeast 492 566 45,000  Level FlightAware
01:15PM 46.4830 -0.6990 119° Southeast 494 568 45,000  Level FlightAware
01:16PM 46.4590 -0.5830 107° East 500 575 45,000  Level FlightAware
01:16PM 46.4450 -0.4620 99° East 498 573 45,000  Level FlightAware
01:17PM 46.4310 -0.3460 100° East 496 571 45,000  Level FlightAware
01:17PM 46.4190 -0.2520 100° East 498 573 45,000  Level FlightAware
01:18PM 46.4020 -0.1130 100° East 501 577 45,000  Level FlightAware
01:18PM 46.3910 -0.0240 100° East 499 574 45,000  Level FlightAware
01:19PM 46.3740 0.1080 101° East 496 571 45,000  Level FlightAware
01:19PM 46.3710 0.1380 98° East 496 571 45,000  Level FlightAware
01:20PM 46.3560 0.2580 100° East 497 572 45,000  Level FlightAware
01:21PM 46.3320 0.4480 100° East 499 574 45,000  Level FlightAware
01:22PM 46.3150 0.5790 101° East 496 571 45,000  Level FlightAware
01:22PM 46.3010 0.6830 101° East 496 571 45,000  Level FlightAware
01:23PM 46.2830 0.8200 101° East 499 574 45,000  Level FlightAware
01:23PM 46.2740 0.8890 101° East 500 575 45,000  Level FlightAware
01:24PM 46.2450 1.1020 101° East 496 571 45,000  Level FlightAware
01:25PM 46.2290 1.2180 101° East 495 570 45,000  Level FlightAware
01:25PM 46.2120 1.3450 101° East 498 573 45,000  Level FlightAware
01:26PM 46.1920 1.4950 101° East 497 572 45,000  Level FlightAware
01:27PM 46.1740 1.6210 102° East 495 570 45,000  Level FlightAware
01:27PM 46.1570 1.7390 102° East 492 566 45,000  Level FlightAware
01:28PM 46.1420 1.8480 101° East 492 566 45,000  Level FlightAware
01:29PM 46.1240 1.9780 101° East 494 568 45,000  Level FlightAware
01:29PM 46.1050 2.1030 102° East 494 568 45,000  Level FlightAware
01:30PM 46.0900 2.2070 102° East 494 568 45,000  Level FlightAware
01:30PM 46.0740 2.3220 101° East 493 567 45,000  Level FlightAware
01:31PM 46.0560 2.4430 102° East 493 567 45,000  Level FlightAware
01:32PM 46.0410 2.5390 103° East 496 571 45,000  Level FlightAware
01:32PM 46.0240 2.6590 101° East 503 579 45,000  Level FlightAware
01:33PM 46.0080 2.7670 102° East 506 582 45,000  Level FlightAware
01:33PM 45.9880 2.8970 102° East 498 573 45,000 -720 Level FlightAware
01:34PM 45.9740 2.9900 102° East 494 568 44,200 -1,920 Descending FlightAware
01:35PM 45.9550 3.1160 102° East 503 579 42,800 -2,220 Descending FlightAware
01:35PM 45.9330 3.2590 102° East 500 575 41,200 -2,220 Descending FlightAware
01:36PM 45.9130 3.3840 103° East 500 575 39,800 -2,220 Descending FlightAware
01:37PM 45.8950 3.4990 103° East 501 577 38,500 -2,220 Descending FlightAware
01:37PM 45.8770 3.6130 103° East 502 578 37,200 -1,860 Descending FlightAware
01:38PM 45.8550 3.7490 103° East 500 575 36,100 -1,440 Descending FlightAware
01:38PM 45.8370 3.8660 102° East 504 580 35,400 -1,680 Descending FlightAware
01:39PM 45.8170 3.9860 103° East 507 583 34,100 -2,220 Descending FlightAware
01:39PM 45.8070 4.0580 101° East 508 585 33,300 -2,040 Descending FlightAware
01:41PM 45.7780 4.2800 101° East 508 585 31,000 -1,320 Descending FlightAware
01:41PM 45.7620 4.4060 100° East 510 587 31,000  Level FlightAware
01:42PM 45.7470 4.5180 101° East 508 585 31,000  Level FlightAware
01:42PM 45.7380 4.5880 100° East 509 586 31,000  Level FlightAware
01:43PM 45.7030 4.8290 102° East 510 587 31,000  Level FlightAware
01:44PM 45.6740 4.9700 106° East 506 582 31,000  Level FlightAware
01:45PM 45.6530 5.0720 106° East 505 581 31,000  Level FlightAware
01:45PM 45.6320 5.2030 103° East 506 582 31,000  Level FlightAware
01:46PM 45.6160 5.3030 103° East 504 580 31,000  Level FlightAware
01:46PM 45.5930 5.4250 105° East 504 580 31,000 -300 Level FlightAware
01:47PM 45.5660 5.5430 108° East 505 581 30,700 -1,320 Descending FlightAware
01:48PM 45.5330 5.6550 113° Southeast 501 577 29,400 -2,220 Descending FlightAware
01:48PM 45.4950 5.7420 122° Southeast 498 573 28,200 -2,100 Descending FlightAware
01:49PM 45.4480 5.8430 124° Southeast 486 559 27,000 -1,020 Descending FlightAware
01:49PM 45.4050 5.9360 123° Southeast 489 563 27,000  Level FlightAware
01:50PM 45.3560 6.0510 121° Southeast 490 564 27,000  Level FlightAware
01:51PM 45.3290 6.1460 112° Southeast 489 563 27,000  Level FlightAware
01:51PM 45.3040 6.2560 108° East 489 563 27,000  Level FlightAware
01:52PM 45.2790 6.3680 108° East 491 565 27,000  Level FlightAware
01:52PM 45.2550 6.4690 109° East 491 565 27,000  Level FlightAware
01:53PM 45.2280 6.5880 108° East 492 566 27,000  Level FlightAware
01:54PM 45.2030 6.6950 108° East 491 565 27,000  Level FlightAware
01:54PM 45.1760 6.8080 109° East 490 564 27,000  Level FlightAware
01:55PM 45.1500 6.9220 108° East 492 566 27,000 -420 Level FlightAware
01:55PM 45.1250 7.0290 108° East 490 564 26,500 -1,320 Descending FlightAware
01:56PM 45.1010 7.1300 109° East 478 550 25,500 -1,320 Descending FlightAware
01:57PM 45.0760 7.2370 108° East 474 545 25,000 -480 Descending FlightAware
01:57PM 45.0540 7.3300 108° East 474 545 25,000  Level FlightAware
01:58PM 45.0300 7.4330 108° East 477 549 25,000 -960 Level FlightAware
01:58PM 45.0150 7.5460 101° East 473 544 23,900 -2,100 Descending FlightAware
01:59PM 45.0040 7.6550 98° East 463 533 22,500 -2,340 Descending FlightAware
01:59PM 44.9950 7.7470 98° East 459 528 21,300 -1,200 Descending FlightAware
02:00PM 44.9860 7.8450 97° East 452 520 20,900 -900 Descending FlightAware
02:01PM 44.9710 8.0030 98° East 444 511 20,000 -1,140 Descending FlightAware
02:02PM 44.9820 8.1030 81° East 447 514 19,500 -1,980 Descending FlightAware
02:02PM 45.0330 8.2130 57° Northeast 427 491 17,300 -2,820 Descending FlightAware
02:03PM 45.0680 8.2750 51° Northeast 400 460 16,000 -2,340 Descending FlightAware
02:04PM 45.1120 8.3540 52° Northeast 372 428 14,200 -2,700 Descending FlightAware
02:04PM 45.1610 8.4400 51° Northeast 349 402 12,200 -2,880 Descending FlightAware
02:05PM 45.1980 8.5060 51° Northeast 320 368 10,700 -2,160 Descending FlightAware
02:05PM 45.2190 8.5440 52° Northeast 304 350 9,900 -2,100 Descending FlightAware
02:06PM 45.2380 8.5780 52° Northeast 291 335 9,100 -2,220 Descending FlightAware
02:06PM 45.2510 8.6010 51° Northeast 286 329 8,600 -2,040 Descending FlightAware
02:06PM 45.2690 8.6340 52° Northeast 281 323 7,800 -1,920 Descending FlightAware
02:07PM 45.2920 8.6710 49° Northeast 274 315 7,000 -2,040 Descending FlightAware
02:07PM 45.2960 8.6760 41° Northeast 271 312 6,800 -2,220 Descending FlightAware
02:07PM 45.3040 8.6810 24° Northeast 269 310 6,600 -1,740 Descending FlightAware
02:07PM 45.3260 8.6990 30° Northeast 264 304 6,000 -1,740 Descending FlightAware
02:08PM 45.3490 8.7210 34° Northeast 255 293 5,300 -1,800 Descending FlightAware
02:08PM 45.3650 8.7370 35° Northeast 251 289 4,800 -1,800 Descending FlightAware
02:08PM 45.3890 8.7610 35° Northeast 246 283 4,100 -1,620 Descending FlightAware
02:08PM 45.3970 8.7690 35° Northeast 243 280 3,900 -480 Descending FlightAware
02:09PM 45.4130 8.7830 32° Northeast 214 246 3,900  Level FlightAware
02:09PM 45.4200 8.7850 11° North 197 227 3,900  Level FlightAware
02:09PM 45.4420 8.7750 342° North 177 204 3,900 -240 Level FlightAware
02:10PM 45.4600 8.7690 347° North 177 204 3,700 -780 Descending FlightAware
02:10PM 45.4720 8.7660 350° North 174 200 3,400 -1,140 Descending FlightAware
02:10PM 45.4830 8.7630 349° North 174 200 3,100 -960 Descending FlightAware
02:11PM 45.5030 8.7580 350° North 173 199 2,700 -960 Descending FlightAware
02:11PM 45.5210 8.7530 349° North 173 199 2,400 -900 Descending FlightAware
02:11PM 45.5340 8.7490 348° North 172 198 2,200 -960 Descending FlightAware
02:12PM 45.5550 8.7440 351° North 138 159 1,700 -840 Descending FlightAware
02:12PM 45.5650 8.7410 348° North 127 146 1,600 -540 Descending FlightAware
02:13PM 45.5810 8.7360 348° North 126 145 1,300 -660 Descending FlightAware
02:13PM 45.5920 8.7330 349° North 126 145 1,100 -720 Descending FlightAware
02:13PM 45.6010 8.7310 351° North 125 144 900 -300 Descending FlightAware
02:14PM 45.6150 8.7270 349° North 125 144 900  Level FlightAware
02:16PM 45.6167 8.7167 49° Northeast  Level FlightAware Approximate
02:17PM 45.6306 8.7281 49° Northeast  Level Estimated
02:18PM 45.6306 8.7281 49° Northeast  Level Estimated
02:19PM 45.6306 8.7281 49° Northeast  Level Estimated
02:20PM 45.6306 8.7281 49° Northeast  Level Estimated
02:21PM 45.6306 8.7281 49° Northeast  Level Estimated
02:22PM 45.6306 8.7281 49° Northeast  Level Estimated
02:23PM 45.6306 8.7281 49° Northeast  Level Estimated
02:24PM 45.6306 8.7281 49° Northeast  Level Estimated
02:25PM 45.6306 8.7281 49° Northeast  Level Estimated
02:26PM 45.6306 8.7281 49° Northeast  Level Estimated
02:27PM 45.6306 8.7281 49° Northeast  Level Estimated
02:28PM 45.6306 8.7281 49° Northeast  Level Estimated
02:29PM 45.6306 8.7281 49° Northeast  Level Estimated